createdAt,value
2022-09-20T00:01:28.708Z,4.67
2022-09-20T00:03:59.852Z,3.27
2022-09-20T00:06:29.656Z,3.90
2022-09-20T00:08:56.735Z,3.70
2022-09-20T00:11:29.689Z,3.50
2022-09-20T00:13:58.796Z,4.10
2022-09-20T00:16:29.138Z,3.83
2022-09-20T00:18:57.896Z,4.00
2022-09-20T00:21:27.366Z,3.47
2022-09-20T00:23:54.295Z,3.30
2022-09-20T00:26:21.756Z,3.87
2022-09-20T00:28:48.548Z,3.13
2022-09-20T00:31:15.919Z,4.10
2022-09-20T00:34:01.366Z,4.17
2022-09-20T00:36:28.307Z,3.97
2022-09-20T00:38:56.786Z,4.03
2022-09-20T00:41:23.537Z,3.40
2022-09-20T00:43:50.448Z,3.70
2022-09-20T00:46:41.874Z,3.83
2022-09-20T00:49:16.459Z,3.80
2022-09-20T00:51:49.224Z,3.57
2022-09-20T00:54:20.329Z,4.43
2022-09-20T00:56:48.394Z,3.30
2022-09-20T00:59:16.555Z,3.90
2022-09-20T01:01:46.157Z,4.03
2022-09-20T01:04:16.290Z,3.43
2022-09-20T01:06:45.949Z,4.20
2022-09-20T01:09:12.621Z,4.50
2022-09-20T01:11:40.460Z,4.40
2022-09-20T01:14:07.571Z,4.17
2022-09-20T01:16:34.885Z,4.50
2022-09-20T01:19:08.295Z,4.80
2022-09-20T01:21:35.247Z,4.73
2022-09-20T01:24:16.524Z,4.80
2022-09-20T01:27:10.511Z,5.67
2022-09-20T01:30:08.204Z,5.30
2022-09-20T01:32:46.208Z,4.77
2022-09-20T01:35:15.868Z,5.53
2022-09-20T01:38:02.910Z,6.60
2022-09-20T01:40:57.824Z,6.43
2022-09-20T01:43:37.361Z,6.00
2022-09-20T01:46:16.886Z,5.83
2022-09-20T01:48:43.621Z,6.40
2022-09-20T01:51:51.218Z,6.30
2022-09-20T01:54:57.916Z,6.87
2022-09-20T01:57:55.704Z,7.20
2022-09-20T02:01:04.527Z,6.23
2022-09-20T02:03:49.747Z,7.20
2022-09-20T02:06:42.163Z,7.07
2022-09-20T02:09:28.997Z,6.33
2022-09-20T02:12:41.228Z,7.67
2022-09-20T02:15:33.892Z,8.27
2022-09-20T02:18:19.073Z,7.97
2022-09-20T02:20:58.839Z,7.87
2022-09-20T02:23:37.871Z,9.13
2022-09-20T02:26:31.483Z,7.47
2022-09-20T02:29:33.616Z,8.47
2022-09-20T02:32:23.969Z,9.87
2022-09-20T02:35:28.859Z,9.23
2022-09-20T02:38:06.404Z,8.40
2022-09-20T02:40:36.099Z,9.60
2022-09-20T02:43:25.576Z,10.70
2022-09-20T02:46:19.801Z,9.70
2022-09-20T02:49:05.459Z,10.30
2022-09-20T02:51:41.032Z,9.10
2022-09-20T02:54:37.443Z,10.80
2022-09-20T02:57:21.072Z,8.77
2022-09-20T02:59:56.590Z,9.90
2022-09-20T03:02:51.198Z,9.23
2022-09-20T03:05:44.530Z,9.70
2022-09-20T03:08:28.857Z,8.47
2022-09-20T03:11:34.927Z,8.97
2022-09-20T03:14:16.565Z,8.63
2022-09-20T03:17:22.148Z,8.97
2022-09-20T03:20:03.319Z,7.30
2022-09-20T03:22:50.420Z,8.10
2022-09-20T03:25:41.088Z,8.33
2022-09-20T03:28:20.005Z,8.03
2022-09-20T03:31:12.062Z,8.07
2022-09-20T03:34:01.927Z,8.00
2022-09-20T03:36:35.468Z,7.40
2022-09-20T03:39:31.592Z,8.20
2022-09-20T03:42:08.485Z,8.57
2022-09-20T03:44:43.700Z,8.27
2022-09-20T03:47:45.475Z,8.90
2022-09-20T03:50:12.086Z,10.90
2022-09-20T03:52:41.456Z,8.20
2022-09-20T03:58:08.706Z,8.07
2022-09-20T04:01:08.572Z,8.00
2022-09-20T04:03:57.099Z,7.97
2022-09-20T04:06:52.772Z,8.00
2022-09-20T04:09:34.691Z,8.27
2022-09-20T04:12:08.320Z,8.60
2022-09-20T04:14:52.288Z,9.70
2022-09-20T04:17:41.476Z,8.63
2022-09-20T04:20:23.824Z,8.60
2022-09-20T04:22:54.204Z,8.33
2022-09-20T04:25:40.708Z,8.80
2022-09-20T04:28:26.600Z,8.50
2022-09-20T04:30:59.929Z,9.00
2022-09-20T04:33:39.899Z,8.60
2022-09-20T04:36:36.482Z,9.60
2022-09-20T04:39:36.512Z,9.73
2022-09-20T04:43:02.121Z,10.83
2022-09-20T04:45:58.915Z,12.70
2022-09-20T04:48:56.436Z,11.97
2022-09-20T04:51:41.564Z,14.27
2022-09-20T04:54:11.159Z,12.90
2022-09-20T04:56:59.097Z,15.30
2022-09-20T05:00:00.106Z,14.27
2022-09-20T05:03:11.902Z,14.03
2022-09-20T05:06:17.039Z,14.40
2022-09-20T05:08:58.019Z,14.43
2022-09-20T05:11:30.496Z,13.63
2022-09-20T05:14:13.639Z,14.37
2022-09-20T05:17:17.335Z,14.63
2022-09-20T05:20:02.735Z,12.87
2022-09-20T05:23:15.104Z,12.77
2022-09-20T05:26:12.416Z,13.37
2022-09-20T05:28:53.252Z,13.50
2022-09-20T05:31:50.436Z,13.27
2022-09-20T05:34:22.561Z,12.83
2022-09-20T05:37:01.735Z,13.40
2022-09-20T05:39:42.184Z,13.53
2022-09-20T05:42:18.194Z,14.13
2022-09-20T05:44:59.872Z,14.07
2022-09-20T05:47:59.775Z,12.83
2022-09-20T05:50:41.120Z,13.50
2022-09-20T05:53:45.369Z,13.03
2022-09-20T05:56:35.391Z,13.00
2022-09-20T05:59:40.709Z,12.77
2022-09-20T06:02:27.973Z,12.23
2022-09-20T06:05:29.574Z,12.90
2022-09-20T06:08:28.219Z,13.20
2022-09-20T06:11:31.259Z,11.90
2022-09-20T06:14:20.727Z,11.33
2022-09-20T06:17:18.977Z,12.37
2022-09-20T06:20:16.500Z,10.47
2022-09-20T06:22:47.173Z,11.87
2022-09-20T06:25:20.044Z,11.60
2022-09-20T06:27:58.423Z,10.90
2022-09-20T06:30:40.529Z,10.80
2022-09-20T06:33:16.592Z,10.97
2022-09-20T06:35:55.722Z,10.03
2022-09-20T06:39:13.799Z,10.90
2022-09-20T06:41:42.624Z,10.43
2022-09-20T06:44:11.228Z,11.27
2022-09-20T06:46:38.419Z,11.43
2022-09-20T06:49:09.535Z,10.60
2022-09-20T06:51:38.860Z,11.10
2022-09-20T06:54:17.043Z,11.27
2022-09-20T06:56:44.792Z,13.20
2022-09-20T06:59:12.717Z,13.23
2022-09-20T07:01:39.656Z,12.60
2022-09-20T07:04:06.369Z,12.53
2022-09-20T07:06:33.866Z,12.30
2022-09-20T07:09:00.504Z,13.10
2022-09-20T07:11:27.725Z,12.73
2022-09-20T07:13:56.061Z,12.20
2022-09-20T07:16:22.762Z,12.23
2022-09-20T07:18:52.401Z,13.67
2022-09-20T07:21:20.762Z,14.60
2022-09-20T07:23:51.104Z,13.67
2022-09-20T07:26:23.655Z,14.70
2022-09-20T07:28:50.566Z,14.17
2022-09-20T07:31:22.791Z,15.07
2022-09-20T07:33:49.740Z,15.20
2022-09-20T07:36:16.637Z,14.80
2022-09-20T07:38:46.967Z,13.00
2022-09-20T07:41:13.875Z,15.57
2022-09-20T07:43:40.427Z,16.30
2022-09-20T07:46:07.060Z,15.37
2022-09-20T07:48:36.172Z,14.27
2022-09-20T07:51:08.584Z,15.00
2022-09-20T07:53:36.685Z,14.33
2022-09-20T07:56:11.881Z,15.20
2022-09-20T07:58:38.564Z,16.40
2022-09-20T08:01:10.824Z,13.90
2022-09-20T08:03:37.803Z,16.27
2022-09-20T08:06:07.105Z,14.63
2022-09-20T08:08:38.702Z,14.10
2022-09-20T08:11:08.803Z,13.20
2022-09-20T08:16:23.958Z,12.90
2022-09-20T08:18:55.571Z,12.07
2022-09-20T08:21:22.276Z,10.60
2022-09-20T08:23:48.936Z,11.80
2022-09-20T08:26:21.689Z,12.53
2022-09-20T08:28:54.983Z,10.80
2022-09-20T08:31:25.002Z,10.90
2022-09-20T08:33:52.627Z,9.90
2022-09-20T08:36:21.195Z,11.63
2022-09-20T08:41:40.535Z,9.20
2022-09-20T08:44:35.643Z,8.63
2022-09-20T08:47:17.635Z,8.93
2022-09-20T08:49:46.093Z,8.07
2022-09-20T08:52:20.068Z,7.57
2022-09-20T08:54:47.327Z,7.60
2022-09-20T08:57:20.046Z,6.87
2022-09-20T08:59:47.144Z,6.20
2022-09-20T09:02:19.429Z,6.93
2022-09-20T09:04:48.225Z,5.53
2022-09-20T09:07:17.295Z,4.87
2022-09-20T09:09:46.539Z,5.17
2022-09-20T09:12:29.695Z,4.80
2022-09-20T09:15:05.948Z,4.77
2022-09-20T09:17:32.572Z,3.90
2022-09-20T09:20:08.298Z,3.67
2022-09-20T09:22:38.162Z,4.20
2022-09-20T09:25:22.253Z,3.60
2022-09-20T09:27:55.727Z,3.77
2022-09-20T09:30:35.659Z,2.73
2022-09-20T09:33:21.997Z,2.03
2022-09-20T09:36:16.622Z,2.40
2022-09-20T09:38:45.775Z,2.27
2022-09-20T09:41:26.139Z,3.20
2022-09-20T09:44:09.861Z,2.40
2022-09-20T09:46:39.885Z,3.10
2022-09-20T09:49:20.544Z,1.87
2022-09-20T09:52:13.093Z,2.13
2022-09-20T09:55:02.819Z,2.53
2022-09-20T09:58:02.964Z,2.93
2022-09-20T10:00:31.433Z,3.00
2022-09-20T10:03:01.004Z,3.03
2022-09-20T10:05:31.703Z,2.10
2022-09-20T10:08:31.263Z,2.80
2022-09-20T10:11:36.253Z,2.50
2022-09-20T10:14:24.337Z,2.73
2022-09-20T10:17:12.558Z,2.03
2022-09-20T10:19:53.010Z,2.30
2022-09-20T10:23:06.590Z,3.37
2022-09-20T10:26:00.691Z,3.10
2022-09-20T10:28:27.917Z,2.53
2022-09-20T10:31:29.713Z,2.43
2022-09-20T10:34:35.038Z,2.97
2022-09-20T10:37:02.047Z,2.97
2022-09-20T10:39:33.826Z,2.50
2022-09-20T10:42:31.952Z,1.97
2022-09-20T10:45:11.750Z,1.97
2022-09-20T10:48:00.056Z,1.80
2022-09-20T10:50:52.206Z,1.97
2022-09-20T10:53:43.772Z,1.77
2022-09-20T10:56:30.810Z,1.87
2022-09-20T10:59:13.155Z,2.20
2022-09-20T11:01:51.188Z,1.40
2022-09-20T11:04:52.332Z,1.20
2022-09-20T11:07:23.345Z,1.40
2022-09-20T11:09:57.323Z,1.50
2022-09-20T11:12:39.404Z,1.93
2022-09-20T11:15:17.188Z,1.53
2022-09-20T11:18:05.610Z,2.33
2022-09-20T11:20:43.993Z,2.20
2022-09-20T11:23:22.348Z,1.77
2022-09-20T11:26:05.065Z,1.90
2022-09-20T11:28:40.516Z,2.03
2022-09-20T11:31:35.515Z,2.13
2022-09-20T11:34:12.271Z,2.13
2022-09-20T11:36:59.410Z,2.50
2022-09-20T11:39:39.125Z,1.97
2022-09-20T11:42:13.788Z,1.80
2022-09-20T11:44:42.037Z,1.77
2022-09-20T11:47:55.882Z,2.20
2022-09-20T11:50:42.999Z,2.07
2022-09-20T11:53:28.163Z,2.00
2022-09-20T11:56:17.368Z,2.43
2022-09-20T11:58:48.705Z,2.23
2022-09-20T12:01:28.300Z,3.27
2022-09-20T12:04:31.248Z,3.00
2022-09-20T12:07:17.796Z,3.00
2022-09-20T12:10:28.082Z,3.20
2022-09-20T12:13:04.028Z,3.00
2022-09-20T12:15:34.212Z,3.40
2022-09-20T12:18:02.653Z,4.30
2022-09-20T12:20:35.242Z,4.33
2022-09-20T12:23:40.066Z,2.80
2022-09-20T12:26:32.208Z,3.50
2022-09-20T12:29:02.088Z,3.63
2022-09-20T12:31:32.257Z,4.67
2022-09-20T12:34:24.412Z,3.70
2022-09-20T12:36:54.043Z,3.17
2022-09-20T12:39:32.752Z,3.83
2022-09-20T12:42:27.986Z,3.23
2022-09-20T12:45:07.151Z,2.67
2022-09-20T12:47:36.511Z,2.23
2022-09-20T12:50:34.893Z,2.40
2022-09-20T12:53:12.014Z,2.07
2022-09-20T12:56:05.287Z,2.80
2022-09-20T12:58:34.834Z,2.30
2022-09-20T13:01:04.252Z,2.10
2022-09-20T13:03:36.054Z,1.90
2022-09-20T13:06:12.370Z,3.10
2022-09-20T13:08:47.881Z,2.10
2022-09-20T13:11:19.944Z,2.07
2022-09-20T13:13:58.457Z,2.60
2022-09-20T13:16:37.271Z,2.37
2022-09-20T13:19:09.950Z,2.20
2022-09-20T13:21:44.851Z,2.30
2022-09-20T13:24:17.624Z,2.70
2022-09-20T13:26:47.075Z,3.20
2022-09-20T13:29:30.271Z,2.00
2022-09-20T13:31:56.952Z,1.90
2022-09-20T13:34:25.712Z,1.80
2022-09-20T13:36:58.274Z,2.47
2022-09-20T13:39:30.388Z,1.30
2022-09-20T13:42:02.351Z,2.20
2022-09-20T13:44:34.221Z,1.47
2022-09-20T13:47:01.187Z,1.40
2022-09-20T13:49:32.416Z,1.90
2022-09-20T13:51:59.207Z,1.30
2022-09-20T13:54:29.244Z,1.27
2022-09-20T13:57:01.805Z,1.30
2022-09-20T13:59:44.824Z,0.90
2022-09-20T14:02:26.630Z,1.17
2022-09-20T14:05:00.542Z,1.03
2022-09-20T14:07:28.395Z,0.70
2022-09-20T14:09:56.579Z,0.83
2022-09-20T14:12:24.968Z,0.97
2022-09-20T14:14:52.368Z,1.10
2022-09-20T14:17:22.987Z,1.77
2022-09-20T14:19:53.564Z,1.23
2022-09-20T14:22:26.679Z,1.27
2022-09-20T14:25:17.327Z,1.20
2022-09-20T14:27:43.983Z,1.10
2022-09-20T14:30:30.770Z,1.70
2022-09-20T14:32:58.456Z,1.10
2022-09-20T14:35:26.607Z,1.97
2022-09-20T14:38:08.446Z,1.70
2022-09-20T14:40:44.327Z,1.60
2022-09-20T14:43:30.440Z,1.60
2022-09-20T14:46:01.196Z,1.43
2022-09-20T14:48:41.104Z,1.73
2022-09-20T14:51:17.932Z,1.47
2022-09-20T14:53:46.668Z,1.43
2022-09-20T14:56:15.312Z,1.70
2022-09-20T14:59:03.262Z,1.60
2022-09-20T15:01:29.943Z,1.57
2022-09-20T15:03:57.620Z,1.83
2022-09-20T15:06:24.924Z,1.30
2022-09-20T15:08:51.822Z,1.80
2022-09-20T15:11:19.276Z,1.93
2022-09-20T15:13:46.211Z,1.60
2022-09-20T15:16:14.525Z,1.80
2022-09-20T15:18:42.858Z,1.37
2022-09-20T15:21:13.243Z,1.53
2022-09-20T15:23:40.586Z,1.37
2022-09-20T15:26:10.411Z,1.20
2022-09-20T15:28:37.033Z,1.40
2022-09-20T15:31:03.806Z,1.63
2022-09-20T15:33:32.131Z,1.43
2022-09-20T15:36:00.978Z,1.77
2022-09-20T15:38:27.867Z,2.07
2022-09-20T15:40:54.770Z,1.80
2022-09-20T15:43:26.248Z,2.37
2022-09-20T15:45:55.688Z,2.07
2022-09-20T15:48:24.765Z,2.30
2022-09-20T15:50:58.817Z,2.40
2022-09-20T15:53:25.501Z,2.03
2022-09-20T15:55:52.146Z,2.37
2022-09-20T15:58:18.751Z,2.00
2022-09-20T16:00:45.751Z,1.30
2022-09-20T16:03:12.864Z,2.20
2022-09-20T16:05:39.455Z,1.60
2022-09-20T16:08:06.019Z,1.70
2022-09-20T16:10:32.756Z,1.70
2022-09-20T16:12:59.341Z,1.90
2022-09-20T16:15:25.979Z,1.50
2022-09-20T16:18:11.123Z,1.87
2022-09-20T16:20:37.698Z,1.40
2022-09-20T16:23:04.290Z,1.50
2022-09-20T16:25:30.896Z,1.70
2022-09-20T16:27:58.160Z,1.80
2022-09-20T16:30:24.758Z,1.47
2022-09-20T16:32:52.836Z,1.77
2022-09-20T16:35:19.446Z,1.77
2022-09-20T16:37:46.080Z,1.67
2022-09-20T16:40:14.004Z,1.27
2022-09-20T16:42:41.321Z,1.90
2022-09-20T16:45:08.194Z,2.17
2022-09-20T16:47:37.661Z,1.30
2022-09-20T16:50:04.542Z,2.60
2022-09-20T16:52:31.146Z,1.63
2022-09-20T16:54:57.715Z,2.07
2022-09-20T16:57:24.284Z,1.33
2022-09-20T16:59:51.771Z,1.90
2022-09-20T17:02:18.401Z,2.40
2022-09-20T17:04:45.124Z,3.13
2022-09-20T17:07:12.262Z,2.67
2022-09-20T17:09:39.311Z,4.10
2022-09-20T17:12:09.229Z,2.90
2022-09-20T17:14:36.946Z,2.47
2022-09-20T17:17:03.549Z,2.70
2022-09-20T17:19:30.140Z,3.77
2022-09-20T17:21:56.712Z,3.97
2022-09-20T17:24:24.725Z,2.90
2022-09-20T17:26:51.660Z,4.20
2022-09-20T17:29:19.460Z,3.50
2022-09-20T17:31:54.121Z,4.47
2022-09-20T17:34:21.998Z,4.43
2022-09-20T17:36:50.212Z,3.73
2022-09-20T17:39:17.816Z,4.03
2022-09-20T17:41:46.974Z,3.50
2022-09-20T17:44:14.148Z,4.70
2022-09-20T17:46:43.434Z,4.67
2022-09-20T17:49:15.657Z,4.40
2022-09-20T17:51:44.860Z,3.37
2022-09-20T17:54:13.623Z,2.70
2022-09-20T17:56:42.636Z,3.30
2022-09-20T17:59:10.493Z,2.03
2022-09-20T18:01:37.880Z,2.40
2022-09-20T18:04:06.790Z,2.13
2022-09-20T18:06:36.620Z,2.30
2022-09-20T18:09:06.683Z,2.87
2022-09-20T18:11:39.101Z,3.47
2022-09-20T18:14:07.545Z,2.97
2022-09-20T18:16:35.107Z,3.33
2022-09-20T18:19:01.841Z,3.00
2022-09-20T18:21:30.592Z,2.87
2022-09-20T18:23:57.443Z,2.77
2022-09-20T18:26:26.488Z,3.37
2022-09-20T18:28:53.042Z,3.07
2022-09-20T18:31:19.680Z,2.30
2022-09-20T18:33:46.497Z,2.70
2022-09-20T18:36:13.350Z,2.00
2022-09-20T18:38:45.367Z,2.27
2022-09-20T18:41:13.985Z,2.00
2022-09-20T18:43:44.007Z,2.00
2022-09-20T18:46:11.572Z,2.40
2022-09-20T18:48:39.710Z,2.40
2022-09-20T18:51:08.521Z,1.97
2022-09-20T18:53:37.045Z,2.20
2022-09-20T18:56:24.049Z,2.30
2022-09-20T18:58:53.633Z,1.83
2022-09-20T19:01:42.020Z,2.60
2022-09-20T19:04:17.473Z,2.27
2022-09-20T19:07:08.187Z,2.10
2022-09-20T19:09:45.436Z,2.87
2022-09-20T19:12:39.174Z,3.50
2022-09-20T19:15:08.822Z,3.30
2022-09-20T19:18:06.322Z,3.17
2022-09-20T19:20:48.056Z,2.97
2022-09-20T19:23:47.130Z,3.13
2022-09-20T19:26:21.312Z,2.57
2022-09-20T19:28:49.904Z,2.70
2022-09-20T19:31:26.769Z,3.73
2022-09-20T19:33:55.533Z,3.70
2022-09-20T19:36:43.776Z,3.03
2022-09-20T19:39:22.547Z,3.17
2022-09-20T19:42:14.017Z,2.70
2022-09-20T19:45:10.192Z,4.30
2022-09-20T19:47:54.779Z,3.57
2022-09-20T19:50:35.992Z,3.60
2022-09-20T19:53:03.988Z,4.40
2022-09-20T19:55:38.143Z,5.00
2022-09-20T19:58:05.108Z,3.53
2022-09-20T20:00:32.035Z,3.80
2022-09-20T20:02:59.273Z,3.53
2022-09-20T20:05:27.607Z,3.93
2022-09-20T20:08:19.497Z,3.77
2022-09-20T20:11:03.071Z,4.90
2022-09-20T20:14:02.992Z,4.80
2022-09-20T20:16:50.032Z,6.03
2022-09-20T20:19:30.069Z,6.67
2022-09-20T20:22:11.173Z,7.10
2022-09-20T20:24:53.065Z,7.13
2022-09-20T20:27:20.673Z,9.00
2022-09-20T20:29:47.898Z,6.60
2022-09-20T20:32:15.048Z,6.03
2022-09-20T20:34:41.952Z,6.67
2022-09-20T20:37:08.572Z,6.13
2022-09-20T20:39:35.188Z,6.20
2022-09-20T20:42:03.238Z,6.03
2022-09-20T20:44:31.032Z,6.57
2022-09-20T20:46:57.860Z,6.23
2022-09-20T20:49:24.783Z,5.80
2022-09-20T20:51:51.461Z,5.23
2022-09-20T20:54:18.127Z,5.57
2022-09-20T20:56:44.764Z,4.80
2022-09-20T20:59:11.408Z,5.53
2022-09-20T21:01:42.716Z,5.70
2022-09-20T21:04:09.792Z,5.30
2022-09-20T21:06:37.927Z,6.10
2022-09-20T21:09:05.420Z,5.67
2022-09-20T21:11:35.237Z,5.50
2022-09-20T21:14:04.793Z,6.67
2022-09-20T21:16:36.819Z,6.10
2022-09-20T21:19:05.527Z,7.30
2022-09-20T21:21:35.064Z,9.00
2022-09-20T21:24:06.787Z,9.07
2022-09-20T21:26:35.589Z,11.17
2022-09-20T21:29:05.228Z,10.23
2022-09-20T21:31:34.485Z,5.20
2022-09-20T21:34:01.367Z,3.93
2022-09-20T21:36:29.531Z,3.67
2022-09-20T21:38:56.677Z,5.80
2022-09-20T21:41:25.487Z,5.50
2022-09-20T21:43:54.851Z,5.07
2022-09-20T21:46:21.477Z,4.83
2022-09-20T21:48:49.234Z,5.70
2022-09-20T21:51:18.172Z,5.40
2022-09-20T21:53:45.319Z,4.37
2022-09-20T21:56:14.020Z,3.70
2022-09-20T21:58:40.921Z,3.90
2022-09-20T22:01:11.516Z,4.10
2022-09-20T22:03:46.725Z,4.00
2022-09-20T22:06:20.747Z,4.83
2022-09-20T22:08:51.575Z,4.67
2022-09-20T22:11:19.853Z,4.30
2022-09-20T22:13:48.704Z,3.90
2022-09-20T22:16:18.843Z,3.77
2022-09-20T22:18:46.716Z,3.13
2022-09-20T22:21:28.260Z,3.73
2022-09-20T22:23:57.559Z,4.13
2022-09-20T22:26:26.313Z,3.90
2022-09-20T22:28:53.102Z,4.80
2022-09-20T22:31:22.466Z,3.90
2022-09-20T22:33:51.457Z,4.00
2022-09-20T22:36:26.262Z,3.73
2022-09-20T22:38:53.175Z,3.40
2022-09-20T22:41:20.624Z,3.30
2022-09-20T22:43:47.500Z,3.97
2022-09-20T22:46:16.493Z,4.00
2022-09-20T22:48:43.747Z,3.63
2022-09-20T22:51:16.131Z,3.30
2022-09-20T22:53:43.467Z,3.17
2022-09-20T22:56:13.302Z,3.20
2022-09-20T22:58:45.386Z,3.13
2022-09-20T23:01:15.543Z,4.07
2022-09-20T23:03:45.317Z,3.57
2022-09-20T23:06:23.632Z,4.07
2022-09-20T23:08:52.691Z,2.77
2022-09-20T23:11:19.721Z,3.03
2022-09-20T23:13:46.922Z,3.40
2022-09-20T23:16:19.225Z,3.30
2022-09-20T23:18:46.830Z,3.40
2022-09-20T23:21:13.829Z,2.90
2022-09-20T23:23:43.115Z,3.40
2022-09-20T23:26:11.975Z,3.43
2022-09-20T23:28:41.002Z,4.00
2022-09-20T23:31:13.217Z,4.40
2022-09-20T23:33:43.603Z,3.37
2022-09-20T23:36:13.173Z,3.90
2022-09-20T23:38:39.930Z,6.40
2022-09-20T23:41:09.251Z,6.37
2022-09-20T23:43:36.619Z,7.60
2022-09-20T23:46:04.227Z,9.33
2022-09-20T23:48:31.262Z,9.13
2022-09-20T23:50:58.346Z,9.90
2022-09-20T23:53:25.113Z,7.80
2022-09-20T23:55:51.698Z,7.33
2022-09-20T23:58:18.338Z,5.30
